Lauderdale Lakes, Florida
Current Conditions -  °F | °C
As of 7:53 PM on Friday 24 Oct 2014 (Local Time) from KFXE Reporting Station
Light Rain Light Rain  
Wind Chill: 75°   Ceiling: Unl
Heat Index: 75°   Visibility: 10mi
Dew Point: 69°   Wind: 9mph
Humidity: 82%   Direction: 10°N
Pressure: 29.83"   Gusts: NA
Location:  26.144°N, 80.1736°W
Report Text: KFXE 242353Z 01008KT 10SM -RA FEW025 SCT033 24/21 A2983 RMK AO2 RAB51 SLP105 P0000 60000 T02390206 10261 20239 53007
Loading
Personal Weather Stations






























Interactive Weather Map
Tropical Storm Tracking
New forecast layout! Learn more

10-Day Weather Forecast

Advertisements
Track Severe Weather on mobile